createdAt,value
2019-05-12T00:00:14.113Z,7.90
2019-05-12T00:02:43.604Z,7.90
2019-05-12T00:05:13.146Z,7.90
2019-05-12T00:07:42.552Z,7.90
2019-05-12T00:10:12.365Z,7.80
2019-05-12T00:12:41.696Z,7.80
2019-05-12T00:15:13.335Z,7.80
2019-05-12T00:17:42.682Z,7.90
2019-05-12T00:20:12.115Z,7.70
2019-05-12T00:22:43.111Z,7.60
2019-05-12T00:25:12.603Z,7.60
2019-05-12T00:27:42.023Z,7.70
2019-05-12T00:30:13.199Z,7.60
2019-05-12T00:32:42.637Z,7.60
2019-05-12T00:35:12.147Z,7.60
2019-05-12T00:37:41.491Z,7.50
2019-05-12T00:40:10.995Z,7.50
2019-05-12T00:42:40.410Z,7.40
2019-05-12T00:45:09.908Z,7.40
2019-05-12T00:47:41.010Z,7.30
2019-05-12T00:50:10.452Z,7.40
2019-05-12T00:52:40.858Z,7.40
2019-05-12T00:55:10.768Z,7.40
2019-05-12T00:57:41.086Z,7.30
2019-05-12T01:00:10.768Z,7.30
2019-05-12T01:02:40.348Z,7.20
2019-05-12T01:05:09.857Z,7.20
2019-05-12T01:07:39.192Z,7.20
2019-05-12T01:10:08.900Z,7.20
2019-05-12T01:12:38.446Z,7.20
2019-05-12T01:15:08.614Z,7.20
2019-05-12T01:17:40.103Z,7.20
2019-05-12T01:20:09.787Z,7.20
2019-05-12T01:22:39.199Z,7.10
2019-05-12T01:25:08.907Z,7.10
2019-05-12T01:27:38.405Z,7.10
2019-05-12T01:30:08.925Z,7.20
2019-05-12T01:32:39.984Z,7.10
2019-05-12T01:35:10.032Z,7.00
2019-05-12T01:37:42.075Z,7.00
2019-05-12T01:40:11.791Z,6.90
2019-05-12T01:42:41.143Z,7.00
2019-05-12T01:45:10.635Z,7.00
2019-05-12T01:47:40.060Z,6.90
2019-05-12T01:50:09.761Z,6.80
2019-05-12T01:52:39.109Z,6.80
2019-05-12T01:55:08.909Z,6.80
2019-05-12T01:57:38.697Z,6.70
2019-05-12T02:00:10.415Z,6.60
2019-05-12T02:02:41.045Z,6.60
2019-05-12T02:05:11.067Z,6.50
2019-05-12T02:07:44.700Z,6.60
2019-05-12T02:10:17.819Z,6.50
2019-05-12T02:12:48.857Z,6.50
2019-05-12T02:15:19.563Z,6.50
2019-05-12T02:17:48.943Z,6.70
2019-05-12T02:20:19.427Z,6.70
2019-05-12T02:22:48.854Z,6.70
2019-05-12T02:25:18.624Z,6.60
2019-05-12T02:27:48.163Z,6.60
2019-05-12T02:30:20.275Z,6.60
2019-05-12T02:32:53.730Z,6.60
2019-05-12T02:35:20.393Z,6.50
2019-05-12T02:37:49.727Z,6.50
2019-05-12T02:40:19.749Z,6.50
2019-05-12T02:42:49.163Z,6.50
2019-05-12T02:45:18.761Z,6.40
2019-05-12T02:47:48.122Z,6.50
2019-05-12T02:50:20.612Z,6.50
2019-05-12T02:52:50.750Z,6.60
2019-05-12T02:55:21.212Z,6.60
2019-05-12T02:57:55.073Z,6.60
2019-05-12T03:00:24.987Z,6.60
2019-05-12T03:02:56.157Z,6.70
2019-05-12T03:05:27.380Z,6.60
2019-05-12T03:07:59.571Z,6.50
2019-05-12T03:10:28.915Z,6.60
2019-05-12T03:12:58.293Z,6.80
2019-05-12T03:15:27.732Z,6.80
2019-05-12T03:17:57.114Z,6.90
2019-05-12T03:20:26.470Z,7.00
2019-05-12T03:22:56.390Z,7.00
2019-05-12T03:25:30.144Z,7.10
2019-05-12T03:27:58.492Z,7.00
2019-05-12T03:30:29.536Z,7.00
2019-05-12T03:32:59.163Z,7.00
2019-05-12T03:35:35.268Z,6.90
2019-05-12T03:37:59.661Z,6.90
2019-05-12T03:40:29.028Z,6.80
2019-05-12T03:42:58.452Z,6.80
2019-05-12T03:45:27.854Z,6.80
2019-05-12T03:47:57.251Z,6.80
2019-05-12T03:50:26.633Z,6.90
2019-05-12T03:52:56.864Z,6.90
2019-05-12T03:55:35.386Z,6.90
2019-05-12T03:57:57.464Z,6.90
2019-05-12T04:00:26.886Z,6.90
2019-05-12T04:02:56.239Z,7.00
2019-05-12T04:05:25.676Z,7.00
2019-05-12T04:07:57.927Z,7.10
2019-05-12T04:10:27.281Z,7.10
2019-05-12T04:12:56.644Z,7.10
2019-05-12T04:15:25.980Z,7.10
2019-05-12T04:17:55.661Z,7.20
2019-05-12T04:20:25.642Z,7.30
2019-05-12T04:22:55.182Z,7.30
2019-05-12T04:25:25.173Z,7.40
2019-05-12T04:27:54.779Z,7.50
2019-05-12T04:30:25.072Z,7.50
2019-05-12T04:32:55.399Z,7.60
2019-05-12T04:35:25.320Z,7.70
2019-05-12T04:37:55.510Z,7.80
2019-05-12T04:40:26.178Z,7.80
2019-05-12T04:42:55.510Z,7.80
2019-05-12T04:45:25.752Z,7.90
2019-05-12T04:47:55.408Z,7.90
2019-05-12T04:50:24.907Z,8.00
2019-05-12T04:52:54.932Z,8.00
2019-05-12T04:55:25.690Z,8.00
2019-05-12T04:57:56.022Z,8.00
2019-05-12T05:00:25.858Z,8.00
2019-05-12T05:02:55.396Z,8.20
2019-05-12T05:05:27.566Z,8.60
2019-05-12T05:07:56.981Z,8.80
2019-05-12T05:10:26.326Z,8.70
2019-05-12T05:12:55.742Z,8.60
2019-05-12T05:15:25.197Z,8.50
2019-05-12T05:17:55.687Z,8.70
2019-05-12T05:20:25.040Z,8.80
2019-05-12T05:22:54.498Z,8.50
2019-05-12T05:25:23.941Z,8.40
2019-05-12T05:27:53.410Z,8.50
2019-05-12T05:30:24.357Z,8.50
2019-05-12T05:32:53.866Z,8.60
2019-05-12T05:35:23.896Z,8.70
2019-05-12T05:37:54.028Z,8.80
2019-05-12T05:40:26.019Z,8.90
2019-05-12T05:42:54.506Z,9.10
2019-05-12T05:45:26.492Z,9.00
2019-05-12T05:47:59.562Z,9.80
2019-05-12T05:50:29.574Z,10.40
2019-05-12T05:52:57.615Z,10.90
2019-05-12T05:55:26.988Z,11.50
2019-05-12T05:57:59.837Z,12.20
2019-05-12T06:00:27.470Z,12.20
2019-05-12T06:02:57.989Z,12.00
2019-05-12T06:05:30.792Z,11.50
2019-05-12T06:07:58.427Z,12.20
2019-05-12T06:10:35.240Z,12.20
2019-05-12T06:12:58.870Z,12.00
2019-05-12T06:15:29.790Z,11.50
2019-05-12T06:17:59.277Z,10.90
2019-05-12T06:20:29.878Z,10.80
2019-05-12T06:22:59.249Z,10.60
2019-05-12T06:25:41.108Z,10.30
2019-05-12T06:28:01.300Z,10.30
2019-05-12T06:30:30.139Z,10.30
2019-05-12T06:32:59.424Z,10.30
2019-05-12T06:35:30.891Z,10.40
2019-05-12T06:38:01.822Z,10.50
2019-05-12T06:40:36.591Z,10.60
2019-05-12T06:43:04.117Z,10.70
2019-05-12T06:45:39.661Z,10.90
2019-05-12T06:48:04.534Z,10.90
2019-05-12T06:50:39.187Z,10.90
2019-05-12T06:53:05.786Z,11.00
2019-05-12T06:55:39.044Z,11.00
2019-05-12T06:58:05.845Z,11.00
2019-05-12T07:00:35.497Z,11.20
2019-05-12T07:03:05.874Z,11.40
2019-05-12T07:05:38.204Z,11.70
2019-05-12T07:08:06.296Z,12.10
2019-05-12T07:10:42.429Z,12.50
2019-05-12T07:13:06.720Z,12.70
2019-05-12T07:15:40.261Z,13.10
2019-05-12T07:18:10.083Z,13.70
2019-05-12T07:20:43.550Z,14.90
2019-05-12T07:23:14.209Z,16.50
2019-05-12T07:25:44.491Z,17.60
2019-05-12T07:28:14.568Z,18.50
2019-05-12T07:30:44.303Z,18.40
2019-05-12T07:33:14.583Z,18.40
2019-05-12T07:35:44.655Z,16.30
2019-05-12T07:38:20.752Z,15.70
2019-05-12T07:40:47.795Z,16.10
2019-05-12T07:43:20.765Z,16.50
2019-05-12T07:45:56.676Z,16.00
2019-05-12T07:48:23.348Z,15.70
2019-05-12T07:50:58.442Z,15.60
2019-05-12T07:53:24.107Z,14.70
2019-05-12T07:55:53.459Z,15.10
2019-05-12T07:58:24.114Z,17.10
2019-05-12T08:01:02.467Z,17.90
2019-05-12T08:03:25.720Z,15.70
2019-05-12T08:05:57.431Z,15.20
2019-05-12T08:08:26.149Z,17.10
2019-05-12T08:10:56.149Z,16.50
2019-05-12T08:13:31.123Z,16.30
2019-05-12T08:15:56.909Z,16.60
2019-05-12T08:18:30.460Z,15.80
2019-05-12T08:20:59.931Z,16.70
2019-05-12T08:23:28.417Z,15.70
2019-05-12T08:25:57.772Z,17.00
2019-05-12T08:28:36.059Z,17.50
2019-05-12T08:30:58.664Z,17.40
2019-05-12T08:33:28.085Z,17.40
2019-05-12T08:36:05.517Z,18.60
2019-05-12T08:38:35.107Z,19.20
2019-05-12T08:41:04.494Z,19.30
2019-05-12T08:43:34.346Z,18.90
2019-05-12T08:46:07.024Z,19.70
2019-05-12T08:48:35.021Z,20.90
2019-05-12T08:51:13.603Z,21.10
2019-05-12T08:53:36.357Z,20.40
2019-05-12T08:56:13.078Z,20.40
2019-05-12T08:58:47.459Z,20.40
2019-05-12T09:01:09.112Z,19.50
2019-05-12T09:03:38.504Z,18.40
2019-05-12T09:06:09.270Z,17.50
2019-05-12T09:08:45.122Z,18.00
2019-05-12T09:11:10.407Z,20.20
2019-05-12T09:13:39.878Z,21.30
2019-05-12T09:16:09.793Z,20.90
2019-05-12T09:18:39.436Z,18.60
2019-05-12T09:21:08.969Z,18.50
2019-05-12T09:23:41.106Z,17.00
2019-05-12T09:26:09.454Z,15.80
2019-05-12T09:28:47.431Z,15.50
2019-05-12T09:31:10.788Z,14.80
2019-05-12T09:33:40.166Z,14.30
2019-05-12T09:36:11.277Z,14.30
2019-05-12T09:38:44.017Z,13.80
2019-05-12T09:41:13.984Z,13.90
2019-05-12T09:43:46.326Z,14.50
2019-05-12T09:46:15.544Z,16.40
2019-05-12T09:48:51.837Z,17.30
2019-05-12T09:51:17.249Z,17.10
2019-05-12T09:53:54.666Z,17.10
2019-05-12T09:56:18.877Z,16.70
2019-05-12T09:58:59.149Z,16.80
2019-05-12T10:01:21.223Z,17.40
2019-05-12T10:03:50.728Z,18.10
2019-05-12T10:06:21.445Z,18.40
2019-05-12T10:08:51.009Z,18.10
2019-05-12T10:11:20.984Z,17.80
2019-05-12T10:13:50.576Z,16.90
2019-05-12T10:16:19.970Z,18.20
2019-05-12T10:18:52.757Z,19.00
2019-05-12T10:21:20.372Z,18.80
2019-05-12T10:23:55.054Z,19.00
2019-05-12T10:26:20.878Z,19.00
2019-05-12T10:28:56.135Z,18.90
2019-05-12T10:31:21.383Z,19.50
2019-05-12T10:33:54.876Z,20.50
2019-05-12T10:36:24.319Z,20.50
2019-05-12T10:38:53.879Z,20.40
2019-05-12T10:41:23.742Z,18.90
2019-05-12T10:43:57.541Z,19.80
2019-05-12T10:46:28.459Z,19.60
2019-05-12T10:48:55.385Z,19.80
2019-05-12T10:51:24.844Z,19.00
2019-05-12T10:53:58.287Z,19.00
2019-05-12T10:56:25.258Z,17.90
2019-05-12T10:58:54.719Z,17.50
2019-05-12T11:01:24.424Z,18.60
2019-05-12T11:03:56.888Z,18.80
2019-05-12T11:06:27.339Z,18.00
2019-05-12T11:08:56.703Z,16.90
2019-05-12T11:11:26.059Z,16.40
2019-05-12T11:13:55.431Z,17.40
2019-05-12T11:16:31.075Z,17.70
2019-05-12T11:18:55.079Z,17.90
2019-05-12T11:21:24.407Z,19.40
2019-05-12T11:23:54.484Z,19.20
2019-05-12T11:26:23.992Z,19.30
2019-05-12T11:28:53.399Z,19.30
2019-05-12T11:31:24.366Z,20.50
2019-05-12T11:33:54.189Z,20.00
2019-05-12T11:36:24.159Z,19.50
2019-05-12T11:38:54.677Z,18.50
2019-05-12T11:41:28.284Z,18.90
2019-05-12T11:43:54.360Z,19.00
2019-05-12T11:46:23.939Z,19.00
2019-05-12T11:48:53.974Z,18.70
2019-05-12T11:51:28.866Z,18.30
2019-05-12T11:53:54.554Z,17.50
2019-05-12T11:56:24.576Z,18.50
2019-05-12T11:58:54.335Z,19.10
2019-05-12T12:01:25.454Z,18.40
2019-05-12T12:03:54.937Z,18.10
2019-05-12T12:06:24.405Z,17.30
2019-05-12T12:08:53.910Z,17.00
2019-05-12T12:11:27.555Z,16.40
2019-05-12T12:13:54.736Z,17.00
2019-05-12T12:16:24.077Z,17.30
2019-05-12T12:19:02.362Z,18.10
2019-05-12T12:21:25.547Z,18.70
2019-05-12T12:23:54.912Z,20.00
2019-05-12T12:26:30.439Z,19.20
2019-05-12T12:29:00.380Z,17.50
2019-05-12T12:31:35.785Z,17.10
2019-05-12T12:34:02.528Z,17.00
2019-05-12T12:36:34.034Z,16.40
2019-05-12T12:39:04.167Z,17.10
2019-05-12T12:41:34.324Z,18.10
2019-05-12T12:44:04.887Z,19.30
2019-05-12T12:46:34.223Z,20.90
2019-05-12T12:49:06.372Z,20.00
2019-05-12T12:51:34.715Z,18.40
2019-05-12T12:54:04.815Z,17.70
2019-05-12T12:56:34.176Z,17.00
2019-05-12T12:59:10.105Z,16.00
2019-05-12T13:01:35.767Z,15.70
2019-05-12T13:04:06.515Z,15.80
2019-05-12T13:06:36.017Z,15.50
2019-05-12T13:09:16.723Z,15.40
2019-05-12T13:11:38.394Z,15.10
2019-05-12T13:14:07.749Z,15.10
2019-05-12T13:16:37.119Z,15.30
2019-05-12T13:19:12.382Z,16.00
2019-05-12T13:21:39.126Z,15.60
2019-05-12T13:24:08.709Z,15.80
2019-05-12T13:26:38.257Z,16.00
2019-05-12T13:29:07.683Z,17.30
2019-05-12T13:31:41.028Z,17.60
2019-05-12T13:34:08.232Z,17.20
2019-05-12T13:36:39.344Z,18.70
2019-05-12T13:39:11.556Z,19.90
2019-05-12T13:41:39.923Z,19.70
2019-05-12T13:44:09.302Z,20.40
2019-05-12T13:46:38.651Z,19.50
2019-05-12T13:49:08.244Z,19.00
2019-05-12T13:51:37.587Z,18.60
2019-05-12T13:54:06.931Z,18.30
2019-05-12T13:56:36.361Z,17.50
2019-05-12T13:59:06.777Z,17.70
2019-05-12T14:01:40.305Z,17.60
2019-05-12T14:04:06.440Z,17.10
2019-05-12T14:06:38.045Z,17.40
2019-05-12T14:09:07.424Z,17.20
2019-05-12T14:11:36.880Z,16.40
2019-05-12T14:14:11.269Z,16.40
2019-05-12T14:16:38.430Z,15.50
2019-05-12T14:19:07.861Z,15.40
2019-05-12T14:21:41.127Z,16.00
2019-05-12T14:24:08.721Z,16.20
2019-05-12T14:26:39.521Z,16.50
2019-05-12T14:29:09.115Z,16.30
2019-05-12T14:31:48.468Z,17.10
2019-05-12T14:34:18.739Z,17.80
2019-05-12T14:36:43.348Z,19.20
2019-05-12T14:39:13.368Z,17.70
2019-05-12T14:41:52.886Z,17.10
2019-05-12T14:44:15.702Z,17.10
2019-05-12T14:46:50.479Z,17.30
2019-05-12T14:49:20.138Z,16.40
2019-05-12T14:51:46.320Z,16.30
2019-05-12T14:54:15.693Z,16.70
2019-05-12T14:56:53.032Z,16.50
2019-05-12T14:59:16.122Z,16.70
2019-05-12T15:01:57.273Z,17.30
2019-05-12T15:04:19.415Z,16.90
2019-05-12T15:06:49.471Z,18.20
2019-05-12T15:09:21.713Z,18.00
2019-05-12T15:11:50.476Z,17.70
2019-05-12T15:14:24.506Z,18.70
2019-05-12T15:16:50.231Z,18.70
2019-05-12T15:19:20.907Z,17.80
2019-05-12T15:21:51.148Z,17.80
2019-05-12T15:24:20.639Z,17.40
2019-05-12T15:26:57.599Z,18.20
2019-05-12T15:29:24.723Z,18.00
2019-05-12T15:31:56.678Z,17.90
2019-05-12T15:34:24.429Z,17.70
2019-05-12T15:36:56.498Z,18.40
2019-05-12T15:39:25.778Z,18.50
2019-05-12T15:41:56.591Z,18.60
2019-05-12T15:44:31.358Z,18.00
2019-05-12T15:46:56.668Z,18.40
2019-05-12T15:49:26.180Z,17.90
2019-05-12T15:51:58.527Z,17.70
2019-05-12T15:54:27.323Z,18.40
2019-05-12T15:56:56.760Z,18.40
2019-05-12T15:59:26.188Z,19.00
2019-05-12T16:02:08.657Z,18.90
2019-05-12T16:04:25.840Z,18.30
2019-05-12T16:06:57.745Z,18.00
2019-05-12T16:09:26.176Z,17.50
2019-05-12T16:11:55.574Z,17.70
2019-05-12T16:14:24.956Z,17.20
2019-05-12T16:16:54.311Z,17.40
2019-05-12T16:19:26.558Z,18.10
2019-05-12T16:21:55.101Z,17.90
2019-05-12T16:24:27.401Z,17.90
2019-05-12T16:26:56.479Z,17.20
2019-05-12T16:29:25.851Z,17.40
2019-05-12T16:31:56.435Z,18.40
2019-05-12T16:34:25.840Z,17.70
2019-05-12T16:36:55.210Z,18.20
2019-05-12T16:39:24.675Z,18.70
2019-05-12T16:41:54.493Z,19.40
2019-05-12T16:44:26.023Z,18.90
2019-05-12T16:46:55.165Z,18.70
2019-05-12T16:49:32.991Z,19.20
2019-05-12T16:51:55.821Z,19.20
2019-05-12T16:54:25.547Z,19.40
2019-05-12T16:56:54.974Z,19.30
2019-05-12T16:59:24.806Z,20.50
2019-05-12T17:01:59.455Z,20.00
2019-05-12T17:04:25.783Z,19.90
2019-05-12T17:06:55.123Z,19.60
2019-05-12T17:09:24.664Z,19.70
2019-05-12T17:11:55.556Z,19.70
2019-05-12T17:14:28.479Z,19.50
2019-05-12T17:16:56.444Z,17.30
2019-05-12T17:19:26.125Z,16.10
2019-05-12T17:21:59.500Z,15.40
2019-05-12T17:24:26.584Z,15.10
2019-05-12T17:26:56.034Z,14.60
2019-05-12T17:29:25.622Z,14.60
2019-05-12T17:31:56.448Z,14.60
2019-05-12T17:34:26.086Z,14.30
2019-05-12T17:37:00.226Z,14.20
2019-05-12T17:39:29.274Z,14.20
2019-05-12T17:41:58.036Z,14.30
2019-05-12T17:44:31.153Z,14.20
2019-05-12T17:46:58.673Z,13.90
2019-05-12T17:49:30.844Z,14.00
2019-05-12T17:52:04.356Z,13.80
2019-05-12T17:54:30.271Z,13.80
2019-05-12T17:56:59.663Z,13.70
2019-05-12T17:59:29.570Z,13.70
2019-05-12T18:01:59.090Z,13.70
2019-05-12T18:04:30.627Z,13.70
2019-05-12T18:07:04.336Z,13.40
2019-05-12T18:09:30.737Z,13.50
2019-05-12T18:12:04.110Z,13.40
2019-05-12T18:14:44.887Z,13.40
2019-05-12T18:17:08.462Z,13.40
2019-05-12T18:19:35.069Z,13.20
2019-05-12T18:22:09.278Z,13.20
2019-05-12T18:24:40.871Z,13.10
2019-05-12T18:27:07.979Z,13.10
2019-05-12T18:29:37.521Z,12.80
2019-05-12T18:32:08.633Z,13.10
2019-05-12T18:34:37.956Z,13.00
2019-05-12T18:37:07.283Z,12.70
2019-05-12T18:39:38.256Z,12.90
2019-05-12T18:42:07.616Z,12.70
2019-05-12T18:44:40.069Z,12.60
2019-05-12T18:47:09.494Z,12.80
2019-05-12T18:49:41.976Z,12.70
2019-05-12T18:52:14.689Z,12.40
2019-05-12T18:54:51.886Z,12.30
2019-05-12T18:57:13.882Z,12.20
2019-05-12T18:59:46.133Z,12.40
2019-05-12T19:02:23.197Z,12.20
2019-05-12T19:04:50.031Z,12.00
2019-05-12T19:07:19.410Z,11.80
2019-05-12T19:09:48.830Z,11.90
2019-05-12T19:12:22.560Z,11.90
2019-05-12T19:14:51.909Z,11.80
2019-05-12T19:17:20.377Z,11.80
2019-05-12T19:19:52.054Z,11.70
2019-05-12T19:22:20.855Z,11.50
2019-05-12T19:24:55.437Z,11.50
2019-05-12T19:27:21.296Z,11.60
2019-05-12T19:29:50.728Z,11.40
2019-05-12T19:32:20.146Z,11.50
2019-05-12T19:34:49.523Z,11.30
2019-05-12T19:37:28.023Z,11.20
2019-05-12T19:39:53.784Z,11.10
2019-05-12T19:42:24.461Z,11.00
2019-05-12T19:44:56.592Z,10.80
2019-05-12T19:47:33.213Z,10.80
2019-05-12T19:49:59.475Z,10.70
2019-05-12T19:52:26.978Z,10.70
2019-05-12T19:54:56.502Z,10.60
2019-05-12T19:57:26.327Z,10.60
2019-05-12T19:59:57.365Z,10.60
2019-05-12T20:02:26.807Z,10.70
2019-05-12T20:04:56.865Z,10.50
2019-05-12T20:07:27.429Z,10.40
2019-05-12T20:10:00.576Z,10.40
2019-05-12T20:12:29.380Z,10.30
2019-05-12T20:14:59.247Z,10.30
2019-05-12T20:17:28.833Z,10.40
2019-05-12T20:19:59.259Z,10.10
2019-05-12T20:22:28.615Z,10.10
2019-05-12T20:24:58.042Z,10.10
2019-05-12T20:27:27.393Z,10.00
2019-05-12T20:29:58.297Z,10.00
2019-05-12T20:32:27.666Z,9.80
2019-05-12T20:34:58.660Z,9.70
2019-05-12T20:37:28.160Z,9.60
2019-05-12T20:40:02.020Z,9.60
2019-05-12T20:42:33.684Z,9.40
2019-05-12T20:45:05.197Z,9.60
2019-05-12T20:47:39.184Z,9.60
2019-05-12T20:50:07.742Z,9.60
2019-05-12T20:52:39.425Z,9.60
2019-05-12T20:55:08.572Z,9.60
2019-05-12T20:57:40.073Z,9.30
2019-05-12T21:00:09.677Z,9.50
2019-05-12T21:02:39.146Z,9.40
2019-05-12T21:05:14.527Z,9.40
2019-05-12T21:07:41.678Z,9.30
2019-05-12T21:10:11.644Z,9.10
2019-05-12T21:12:46.398Z,9.10
2019-05-12T21:15:17.395Z,9.20
2019-05-12T21:17:46.502Z,9.10
2019-05-12T21:20:17.151Z,9.10
2019-05-12T21:22:46.533Z,9.20
2019-05-12T21:25:15.957Z,9.20
2019-05-12T21:27:47.735Z,9.00
2019-05-12T21:30:16.773Z,9.00
2019-05-12T21:32:55.501Z,8.90
2019-05-12T21:35:22.145Z,8.80
2019-05-12T21:37:48.540Z,8.90
2019-05-12T21:40:24.275Z,8.80
2019-05-12T21:42:49.194Z,8.90
2019-05-12T21:45:20.265Z,8.90
2019-05-12T21:47:49.599Z,8.90
2019-05-12T21:50:24.166Z,8.70
2019-05-12T21:52:50.063Z,8.80
2019-05-12T21:55:22.015Z,8.80
2019-05-12T21:57:50.588Z,8.80
2019-05-12T22:00:26.579Z,8.70
2019-05-12T22:03:02.601Z,8.60
2019-05-12T22:05:47.999Z,8.60
2019-05-12T22:08:03.236Z,8.60
2019-05-12T22:10:34.412Z,8.50
2019-05-12T22:13:09.013Z,8.50
2019-05-12T22:15:35.180Z,8.40
2019-05-12T22:18:05.172Z,8.40
2019-05-12T22:20:37.411Z,8.40
2019-05-12T22:23:10.219Z,8.30
2019-05-12T22:25:36.990Z,8.40
2019-05-12T22:28:10.125Z,8.30
2019-05-12T22:30:37.519Z,8.30
2019-05-12T22:33:10.644Z,8.20
2019-05-12T22:35:37.960Z,8.20
2019-05-12T22:38:15.365Z,8.10
2019-05-12T22:40:41.508Z,8.10
2019-05-12T22:43:10.866Z,8.10
2019-05-12T22:45:44.357Z,8.00
2019-05-12T22:48:11.325Z,7.90
2019-05-12T22:50:40.671Z,7.90
2019-05-12T22:53:13.194Z,7.90
2019-05-12T22:55:41.184Z,7.80
2019-05-12T22:58:16.614Z,7.90
2019-05-12T23:00:44.197Z,7.90
2019-05-12T23:03:14.988Z,7.90
2019-05-12T23:05:43.731Z,8.00
2019-05-12T23:08:14.094Z,7.90
2019-05-12T23:10:51.552Z,7.90
2019-05-12T23:13:14.808Z,7.80
2019-05-12T23:15:48.044Z,7.80
2019-05-12T23:18:19.466Z,7.80
2019-05-12T23:20:46.260Z,7.80
2019-05-12T23:23:18.827Z,7.70
2019-05-12T23:25:51.944Z,7.70
2019-05-12T23:28:17.765Z,7.70
2019-05-12T23:30:48.464Z,7.60
2019-05-12T23:33:18.167Z,7.50
2019-05-12T23:35:47.496Z,7.60
2019-05-12T23:38:20.880Z,7.50
2019-05-12T23:40:47.914Z,7.50
2019-05-12T23:43:18.795Z,7.50
2019-05-12T23:45:48.173Z,7.40
2019-05-12T23:48:17.581Z,7.40
2019-05-12T23:50:47.037Z,7.40
2019-05-12T23:53:16.402Z,7.40
2019-05-12T23:55:45.854Z,7.30
2019-05-12T23:58:15.208Z,7.30
